sensor_id;sensor_type;location;lat;lon;timestamp;pressure;altitude;pressure_sealevel;temperature;humidity
3796;BME280;1913;50.660;7.834;2022-07-22T00:01:58;61283.88;;;-145.51;100.00
3796;BME280;1913;50.660;7.834;2022-07-22T00:04:24;61283.88;;;-145.51;100.00
3796;BME280;1913;50.660;7.834;2022-07-22T00:06:49;61283.88;;;-145.51;100.00
3796;BME280;1913;50.660;7.834;2022-07-22T00:09:15;61283.88;;;-145.51;100.00
3796;BME280;1913;50.660;7.834;2022-07-22T00:11:40;61283.88;;;-145.51;100.00
3796;BME280;1913;50.660;7.834;2022-07-22T00:14:05;61283.88;;;-145.51;100.00
3796;BME280;1913;50.660;7.834;2022-07-22T00:16:31;61283.88;;;-145.51;100.00
3796;BME280;1913;50.660;7.834;2022-07-22T00:18:57;61283.88;;;-145.51;100.00
3796;BME280;1913;50.660;7.834;2022-07-22T00:21:23;61283.88;;;-145.51;100.00
3796;BME280;1913;50.660;7.834;2022-07-22T00:23:48;61283.88;;;-145.51;100.00
3796;BME280;1913;50.660;7.834;2022-07-22T00:26:13;61283.88;;;-145.51;100.00
3796;BME280;1913;50.660;7.834;2022-07-22T00:28:39;61283.88;;;-145.51;100.00
3796;BME280;1913;50.660;7.834;2022-07-22T00:31:05;61283.88;;;-145.51;100.00
3796;BME280;1913;50.660;7.834;2022-07-22T00:33:31;61283.88;;;-145.51;100.00
3796;BME280;1913;50.660;7.834;2022-07-22T00:35:56;61283.88;;;-145.51;100.00
3796;BME280;1913;50.660;7.834;2022-07-22T00:38:21;61283.88;;;-145.51;100.00
3796;BME280;1913;50.660;7.834;2022-07-22T00:40:47;61283.88;;;-145.51;100.00
3796;BME280;1913;50.660;7.834;2022-07-22T00:43:12;61283.88;;;-145.51;100.00
3796;BME280;1913;50.660;7.834;2022-07-22T00:45:38;61283.88;;;-145.51;100.00
3796;BME280;1913;50.660;7.834;2022-07-22T00:48:04;61283.88;;;-145.51;100.00
3796;BME280;1913;50.660;7.834;2022-07-22T00:50:30;61283.88;;;-145.51;100.00
3796;BME280;1913;50.660;7.834;2022-07-22T00:52:55;61283.88;;;-145.51;100.00
3796;BME280;1913;50.660;7.834;2022-07-22T00:55:21;61283.88;;;-145.51;100.00
3796;BME280;1913;50.660;7.834;2022-07-22T00:57:47;61283.88;;;-145.51;100.00
3796;BME280;1913;50.660;7.834;2022-07-22T01:00:18;61283.88;;;-145.51;100.00
3796;BME280;1913;50.660;7.834;2022-07-22T01:02:44;61283.88;;;-145.51;100.00
3796;BME280;1913;50.660;7.834;2022-07-22T01:05:09;61283.88;;;-145.51;100.00
3796;BME280;1913;50.660;7.834;2022-07-22T01:07:37;61283.88;;;-145.51;100.00
3796;BME280;1913;50.660;7.834;2022-07-22T01:10:04;61283.88;;;-145.51;100.00
3796;BME280;1913;50.660;7.834;2022-07-22T01:12:30;61283.88;;;-145.51;100.00
3796;BME280;1913;50.660;7.834;2022-07-22T01:14:55;61283.88;;;-145.51;100.00
3796;BME280;1913;50.660;7.834;2022-07-22T01:17:21;61283.88;;;-145.51;100.00
3796;BME280;1913;50.660;7.834;2022-07-22T01:19:46;61283.88;;;-145.51;100.00
3796;BME280;1913;50.660;7.834;2022-07-22T01:22:12;61283.88;;;-145.51;100.00
3796;BME280;1913;50.660;7.834;2022-07-22T01:24:37;61283.88;;;-145.51;100.00
3796;BME280;1913;50.660;7.834;2022-07-22T01:27:03;61283.88;;;-145.51;100.00
3796;BME280;1913;50.660;7.834;2022-07-22T01:29:28;61283.88;;;-145.51;100.00
3796;BME280;1913;50.660;7.834;2022-07-22T01:31:54;61283.88;;;-145.51;100.00
3796;BME280;1913;50.660;7.834;2022-07-22T01:34:19;61283.88;;;-145.51;100.00
3796;BME280;1913;50.660;7.834;2022-07-22T01:36:45;61283.88;;;-145.51;100.00
3796;BME280;1913;50.660;7.834;2022-07-22T01:39:10;61283.88;;;-145.51;100.00
3796;BME280;1913;50.660;7.834;2022-07-22T01:41:37;61283.88;;;-145.51;100.00
3796;BME280;1913;50.660;7.834;2022-07-22T01:44:02;61283.88;;;-145.51;100.00
3796;BME280;1913;50.660;7.834;2022-07-22T01:46:28;61283.88;;;-145.51;100.00
3796;BME280;1913;50.660;7.834;2022-07-22T01:48:53;61283.88;;;-145.51;100.00
3796;BME280;1913;50.660;7.834;2022-07-22T01:51:19;61283.88;;;-145.51;100.00
3796;BME280;1913;50.660;7.834;2022-07-22T01:53:45;61283.88;;;-145.51;100.00
3796;BME280;1913;50.660;7.834;2022-07-22T01:56:11;61283.88;;;-145.51;100.00
3796;BME280;1913;50.660;7.834;2022-07-22T01:58:36;61283.88;;;-145.51;100.00
3796;BME280;1913;50.660;7.834;2022-07-22T02:01:02;61283.88;;;-145.51;100.00
3796;BME280;1913;50.660;7.834;2022-07-22T02:03:28;61283.88;;;-145.51;100.00
3796;BME280;1913;50.660;7.834;2022-07-22T02:05:53;61283.88;;;-145.51;100.00
3796;BME280;1913;50.660;7.834;2022-07-22T02:08:19;61283.88;;;-145.51;100.00
3796;BME280;1913;50.660;7.834;2022-07-22T02:10:44;61283.88;;;-145.51;100.00
3796;BME280;1913;50.660;7.834;2022-07-22T02:13:09;61283.88;;;-145.51;100.00
3796;BME280;1913;50.660;7.834;2022-07-22T02:15:35;61283.88;;;-145.51;100.00
3796;BME280;1913;50.660;7.834;2022-07-22T02:18:10;61283.88;;;-145.51;100.00
3796;BME280;1913;50.660;7.834;2022-07-22T02:20:35;61283.88;;;-145.51;100.00
3796;BME280;1913;50.660;7.834;2022-07-22T02:23:01;61283.88;;;-145.51;100.00
3796;BME280;1913;50.660;7.834;2022-07-22T02:25:26;61283.88;;;-145.51;100.00
3796;BME280;1913;50.660;7.834;2022-07-22T02:27:51;61283.88;;;-145.51;100.00
3796;BME280;1913;50.660;7.834;2022-07-22T02:30:17;61283.88;;;-145.51;100.00
3796;BME280;1913;50.660;7.834;2022-07-22T02:32:42;61283.88;;;-145.51;100.00
3796;BME280;1913;50.660;7.834;2022-07-22T02:35:08;61283.88;;;-145.51;100.00
3796;BME280;1913;50.660;7.834;2022-07-22T02:37:33;61283.88;;;-145.51;100.00
3796;BME280;1913;50.660;7.834;2022-07-22T02:39:59;61283.88;;;-145.51;100.00
3796;BME280;1913;50.660;7.834;2022-07-22T02:42:24;61283.88;;;-145.51;100.00
3796;BME280;1913;50.660;7.834;2022-07-22T02:44:50;61283.88;;;-145.51;100.00
3796;BME280;1913;50.660;7.834;2022-07-22T02:47:15;61283.88;;;-145.51;100.00
3796;BME280;1913;50.660;7.834;2022-07-22T02:49:40;61283.88;;;-145.51;100.00
3796;BME280;1913;50.660;7.834;2022-07-22T02:52:06;61283.88;;;-145.51;100.00
3796;BME280;1913;50.660;7.834;2022-07-22T02:54:31;61283.88;;;-145.51;100.00
3796;BME280;1913;50.660;7.834;2022-07-22T02:56:56;61283.88;;;-145.51;100.00
3796;BME280;1913;50.660;7.834;2022-07-22T02:59:22;61283.88;;;-145.51;100.00
3796;BME280;1913;50.660;7.834;2022-07-22T03:01:47;61283.88;;;-145.51;100.00
3796;BME280;1913;50.660;7.834;2022-07-22T03:04:12;61283.88;;;-145.51;100.00
3796;BME280;1913;50.660;7.834;2022-07-22T03:06:38;61283.88;;;-145.51;100.00
3796;BME280;1913;50.660;7.834;2022-07-22T03:09:03;61283.88;;;-145.51;100.00
3796;BME280;1913;50.660;7.834;2022-07-22T03:11:29;61283.88;;;-145.51;100.00
3796;BME280;1913;50.660;7.834;2022-07-22T03:13:55;61283.88;;;-145.51;100.00
3796;BME280;1913;50.660;7.834;2022-07-22T03:16:20;61283.88;;;-145.51;100.00
3796;BME280;1913;50.660;7.834;2022-07-22T03:18:46;61283.88;;;-145.51;100.00
3796;BME280;1913;50.660;7.834;2022-07-22T03:21:11;61283.88;;;-145.51;100.00
3796;BME280;1913;50.660;7.834;2022-07-22T03:23:36;61283.88;;;-145.51;100.00
3796;BME280;1913;50.660;7.834;2022-07-22T03:26:02;61283.88;;;-145.51;100.00
3796;BME280;1913;50.660;7.834;2022-07-22T03:28:33;61283.88;;;-145.51;100.00
3796;BME280;1913;50.660;7.834;2022-07-22T03:31:07;61283.88;;;-145.51;100.00
3796;BME280;1913;50.660;7.834;2022-07-22T03:33:39;61283.88;;;-145.51;100.00
3796;BME280;1913;50.660;7.834;2022-07-22T03:36:04;61283.88;;;-145.51;100.00
3796;BME280;1913;50.660;7.834;2022-07-22T03:38:34;61283.88;;;-145.51;100.00
3796;BME280;1913;50.660;7.834;2022-07-22T03:40:59;61283.88;;;-145.51;100.00
3796;BME280;1913;50.660;7.834;2022-07-22T03:43:25;61283.88;;;-145.51;100.00
3796;BME280;1913;50.660;7.834;2022-07-22T03:45:50;61283.88;;;-145.51;100.00
3796;BME280;1913;50.660;7.834;2022-07-22T03:48:15;61283.88;;;-145.51;100.00
3796;BME280;1913;50.660;7.834;2022-07-22T03:50:41;61283.88;;;-145.51;100.00
3796;BME280;1913;50.660;7.834;2022-07-22T03:53:06;61283.88;;;-145.51;100.00
3796;BME280;1913;50.660;7.834;2022-07-22T03:55:32;61283.88;;;-145.51;100.00
3796;BME280;1913;50.660;7.834;2022-07-22T03:57:57;61283.88;;;-145.51;100.00
3796;BME280;1913;50.660;7.834;2022-07-22T04:00:22;61283.88;;;-145.51;100.00
3796;BME280;1913;50.660;7.834;2022-07-22T04:02:48;61283.88;;;-145.51;100.00
3796;BME280;1913;50.660;7.834;2022-07-22T04:05:13;61283.88;;;-145.51;100.00
3796;BME280;1913;50.660;7.834;2022-07-22T04:07:39;61283.88;;;-145.51;100.00
3796;BME280;1913;50.660;7.834;2022-07-22T04:10:04;61283.88;;;-145.51;100.00
3796;BME280;1913;50.660;7.834;2022-07-22T04:12:40;61283.88;;;-145.51;100.00
3796;BME280;1913;50.660;7.834;2022-07-22T04:15:06;61283.88;;;-145.51;100.00
3796;BME280;1913;50.660;7.834;2022-07-22T04:17:33;61283.88;;;-145.51;100.00
3796;BME280;1913;50.660;7.834;2022-07-22T04:19:59;61283.88;;;-145.51;100.00
3796;BME280;1913;50.660;7.834;2022-07-22T04:22:28;61283.88;;;-145.51;100.00
3796;BME280;1913;50.660;7.834;2022-07-22T04:24:54;61283.88;;;-145.51;100.00
3796;BME280;1913;50.660;7.834;2022-07-22T04:27:19;61283.88;;;-145.51;100.00
3796;BME280;1913;50.660;7.834;2022-07-22T04:29:45;61283.88;;;-145.51;100.00
3796;BME280;1913;50.660;7.834;2022-07-22T04:32:10;61283.88;;;-145.51;100.00
3796;BME280;1913;50.660;7.834;2022-07-22T04:34:36;61283.88;;;-145.51;100.00
3796;BME280;1913;50.660;7.834;2022-07-22T04:37:01;61283.88;;;-145.51;100.00
3796;BME280;1913;50.660;7.834;2022-07-22T04:39:27;61283.88;;;-145.51;100.00
3796;BME280;1913;50.660;7.834;2022-07-22T04:41:52;61283.88;;;-145.51;100.00
3796;BME280;1913;50.660;7.834;2022-07-22T04:44:18;61283.88;;;-145.51;100.00
3796;BME280;1913;50.660;7.834;2022-07-22T04:46:43;61283.88;;;-145.51;100.00
3796;BME280;1913;50.660;7.834;2022-07-22T04:49:09;61283.88;;;-145.51;100.00
3796;BME280;1913;50.660;7.834;2022-07-22T04:51:34;61283.88;;;-145.51;100.00
3796;BME280;1913;50.660;7.834;2022-07-22T04:54:00;61283.88;;;-145.51;100.00
3796;BME280;1913;50.660;7.834;2022-07-22T04:56:25;61283.88;;;-145.51;100.00
3796;BME280;1913;50.660;7.834;2022-07-22T04:58:50;61283.88;;;-145.51;100.00
3796;BME280;1913;50.660;7.834;2022-07-22T05:01:17;61283.88;;;-145.51;100.00
3796;BME280;1913;50.660;7.834;2022-07-22T05:03:42;61283.88;;;-145.51;100.00
3796;BME280;1913;50.660;7.834;2022-07-22T05:06:08;61283.88;;;-145.51;100.00
3796;BME280;1913;50.660;7.834;2022-07-22T05:08:35;61283.88;;;-145.51;100.00
3796;BME280;1913;50.660;7.834;2022-07-22T05:11:00;61283.88;;;-145.51;100.00
3796;BME280;1913;50.660;7.834;2022-07-22T05:13:26;61283.88;;;-145.51;100.00
3796;BME280;1913;50.660;7.834;2022-07-22T05:15:51;61283.88;;;-145.51;100.00
3796;BME280;1913;50.660;7.834;2022-07-22T05:18:17;61283.88;;;-145.51;100.00
3796;BME280;1913;50.660;7.834;2022-07-22T05:20:43;61283.88;;;-145.51;100.00
3796;BME280;1913;50.660;7.834;2022-07-22T05:23:08;61283.88;;;-145.51;100.00
3796;BME280;1913;50.660;7.834;2022-07-22T05:25:34;61283.88;;;-145.51;100.00
3796;BME280;1913;50.660;7.834;2022-07-22T05:28:00;61283.88;;;-145.51;100.00
3796;BME280;1913;50.660;7.834;2022-07-22T05:30:26;61283.88;;;-145.51;100.00
3796;BME280;1913;50.660;7.834;2022-07-22T05:32:52;61283.88;;;-145.51;100.00
3796;BME280;1913;50.660;7.834;2022-07-22T05:35:18;61283.88;;;-145.51;100.00
3796;BME280;1913;50.660;7.834;2022-07-22T05:37:44;61283.88;;;-145.51;100.00
3796;BME280;1913;50.660;7.834;2022-07-22T05:40:10;61283.88;;;-145.51;100.00
3796;BME280;1913;50.660;7.834;2022-07-22T05:42:35;61283.88;;;-145.51;100.00
3796;BME280;1913;50.660;7.834;2022-07-22T05:45:01;61283.88;;;-145.51;100.00
3796;BME280;1913;50.660;7.834;2022-07-22T05:47:27;61283.88;;;-145.51;100.00
3796;BME280;1913;50.660;7.834;2022-07-22T05:49:52;61283.88;;;-145.51;100.00
3796;BME280;1913;50.660;7.834;2022-07-22T05:52:17;61283.88;;;-145.51;100.00
3796;BME280;1913;50.660;7.834;2022-07-22T05:54:43;61283.88;;;-145.51;100.00
3796;BME280;1913;50.660;7.834;2022-07-22T05:57:08;61283.88;;;-145.51;100.00
3796;BME280;1913;50.660;7.834;2022-07-22T05:59:35;61283.88;;;-145.51;100.00
3796;BME280;1913;50.660;7.834;2022-07-22T06:02:01;61283.88;;;-145.51;100.00
3796;BME280;1913;50.660;7.834;2022-07-22T06:04:27;61283.88;;;-145.51;100.00
3796;BME280;1913;50.660;7.834;2022-07-22T06:06:52;61283.88;;;-145.51;100.00
3796;BME280;1913;50.660;7.834;2022-07-22T06:09:18;61283.88;;;-145.51;100.00
3796;BME280;1913;50.660;7.834;2022-07-22T06:11:43;61283.88;;;-145.51;100.00
3796;BME280;1913;50.660;7.834;2022-07-22T06:14:09;61283.88;;;-145.51;100.00
3796;BME280;1913;50.660;7.834;2022-07-22T06:16:34;61283.88;;;-145.51;100.00
3796;BME280;1913;50.660;7.834;2022-07-22T06:19:01;61283.88;;;-145.51;100.00
3796;BME280;1913;50.660;7.834;2022-07-22T06:21:27;61283.88;;;-145.51;100.00
3796;BME280;1913;50.660;7.834;2022-07-22T06:23:52;61283.88;;;-145.51;100.00
3796;BME280;1913;50.660;7.834;2022-07-22T06:26:18;61283.88;;;-145.51;100.00
3796;BME280;1913;50.660;7.834;2022-07-22T06:28:43;61283.88;;;-145.51;100.00
3796;BME280;1913;50.660;7.834;2022-07-22T06:31:09;61283.88;;;-145.51;100.00
3796;BME280;1913;50.660;7.834;2022-07-22T06:33:34;61283.88;;;-145.51;100.00
3796;BME280;1913;50.660;7.834;2022-07-22T06:35:59;61283.88;;;-145.51;100.00
3796;BME280;1913;50.660;7.834;2022-07-22T06:38:25;61283.88;;;-145.51;100.00
3796;BME280;1913;50.660;7.834;2022-07-22T06:40:51;61283.88;;;-145.51;100.00
3796;BME280;1913;50.660;7.834;2022-07-22T06:43:16;61283.88;;;-145.51;100.00
3796;BME280;1913;50.660;7.834;2022-07-22T06:45:42;61283.88;;;-145.51;100.00
3796;BME280;1913;50.660;7.834;2022-07-22T06:48:07;61283.88;;;-145.51;100.00
3796;BME280;1913;50.660;7.834;2022-07-22T06:50:33;61283.88;;;-145.51;100.00
3796;BME280;1913;50.660;7.834;2022-07-22T06:52:58;61283.88;;;-145.51;100.00
3796;BME280;1913;50.660;7.834;2022-07-22T06:55:24;61283.88;;;-145.51;100.00
3796;BME280;1913;50.660;7.834;2022-07-22T06:57:49;61283.88;;;-145.51;100.00
3796;BME280;1913;50.660;7.834;2022-07-22T07:00:15;61283.88;;;-145.51;100.00
3796;BME280;1913;50.660;7.834;2022-07-22T07:02:41;61283.88;;;-145.51;100.00
3796;BME280;1913;50.660;7.834;2022-07-22T07:05:06;61283.88;;;-145.51;100.00
3796;BME280;1913;50.660;7.834;2022-07-22T07:07:32;61283.88;;;-145.51;100.00
3796;BME280;1913;50.660;7.834;2022-07-22T07:09:57;61283.88;;;-145.51;100.00
3796;BME280;1913;50.660;7.834;2022-07-22T07:12:23;61283.88;;;-145.51;100.00
3796;BME280;1913;50.660;7.834;2022-07-22T07:14:48;61283.88;;;-145.51;100.00
3796;BME280;1913;50.660;7.834;2022-07-22T07:17:14;61283.88;;;-145.51;100.00
3796;BME280;1913;50.660;7.834;2022-07-22T07:19:41;61283.88;;;-145.51;100.00
3796;BME280;1913;50.660;7.834;2022-07-22T07:22:06;61283.88;;;-145.51;100.00
3796;BME280;1913;50.660;7.834;2022-07-22T07:24:32;61283.88;;;-145.51;100.00
3796;BME280;1913;50.660;7.834;2022-07-22T07:26:57;61283.88;;;-145.51;100.00
3796;BME280;1913;50.660;7.834;2022-07-22T07:29:23;61283.88;;;-145.51;100.00
3796;BME280;1913;50.660;7.834;2022-07-22T07:31:48;61283.88;;;-145.51;100.00
3796;BME280;1913;50.660;7.834;2022-07-22T07:34:14;61283.88;;;-145.51;100.00
3796;BME280;1913;50.660;7.834;2022-07-22T07:36:39;61283.88;;;-145.51;100.00
3796;BME280;1913;50.660;7.834;2022-07-22T07:39:05;61283.88;;;-145.51;100.00
3796;BME280;1913;50.660;7.834;2022-07-22T07:41:31;61283.88;;;-145.51;100.00
3796;BME280;1913;50.660;7.834;2022-07-22T07:43:56;61283.88;;;-145.51;100.00
3796;BME280;1913;50.660;7.834;2022-07-22T07:46:21;61283.88;;;-145.51;100.00
3796;BME280;1913;50.660;7.834;2022-07-22T07:48:47;61283.88;;;-145.51;100.00
3796;BME280;1913;50.660;7.834;2022-07-22T07:51:13;61283.88;;;-145.51;100.00
3796;BME280;1913;50.660;7.834;2022-07-22T07:53:39;61283.88;;;-145.51;100.00
3796;BME280;1913;50.660;7.834;2022-07-22T07:56:04;61283.88;;;-145.51;100.00
3796;BME280;1913;50.660;7.834;2022-07-22T07:58:30;61283.88;;;-145.51;100.00
3796;BME280;1913;50.660;7.834;2022-07-22T08:00:56;61283.88;;;-145.51;100.00
3796;BME280;1913;50.660;7.834;2022-07-22T08:03:21;61283.88;;;-145.51;100.00
3796;BME280;1913;50.660;7.834;2022-07-22T08:05:46;61283.88;;;-145.51;100.00
3796;BME280;1913;50.660;7.834;2022-07-22T08:08:12;61283.88;;;-145.51;100.00
3796;BME280;1913;50.660;7.834;2022-07-22T08:10:37;61283.88;;;-145.51;100.00
3796;BME280;1913;50.660;7.834;2022-07-22T08:13:04;61283.88;;;-145.51;100.00
3796;BME280;1913;50.660;7.834;2022-07-22T08:15:29;61283.88;;;-145.51;100.00
3796;BME280;1913;50.660;7.834;2022-07-22T08:17:55;61283.88;;;-145.51;100.00
3796;BME280;1913;50.660;7.834;2022-07-22T08:20:22;61283.88;;;-145.51;100.00
3796;BME280;1913;50.660;7.834;2022-07-22T08:22:47;61283.88;;;-145.51;100.00
3796;BME280;1913;50.660;7.834;2022-07-22T08:25:13;61283.88;;;-145.51;100.00
3796;BME280;1913;50.660;7.834;2022-07-22T08:27:38;61283.88;;;-145.51;100.00
3796;BME280;1913;50.660;7.834;2022-07-22T08:30:05;61283.88;;;-145.51;100.00
3796;BME280;1913;50.660;7.834;2022-07-22T08:32:32;61283.88;;;-145.51;100.00
3796;BME280;1913;50.660;7.834;2022-07-22T08:34:57;61283.88;;;-145.51;100.00
3796;BME280;1913;50.660;7.834;2022-07-22T08:37:23;61283.88;;;-145.51;100.00
3796;BME280;1913;50.660;7.834;2022-07-22T08:39:48;61283.88;;;-145.51;100.00
3796;BME280;1913;50.660;7.834;2022-07-22T08:42:14;61283.88;;;-145.51;100.00
3796;BME280;1913;50.660;7.834;2022-07-22T08:44:39;61283.88;;;-145.51;100.00
3796;BME280;1913;50.660;7.834;2022-07-22T08:47:06;61283.88;;;-145.51;100.00
3796;BME280;1913;50.660;7.834;2022-07-22T08:49:32;61283.88;;;-145.51;100.00
3796;BME280;1913;50.660;7.834;2022-07-22T08:51:57;61283.88;;;-145.51;100.00
3796;BME280;1913;50.660;7.834;2022-07-22T08:54:22;61283.88;;;-145.51;100.00
3796;BME280;1913;50.660;7.834;2022-07-22T08:56:49;61283.88;;;-145.51;100.00
3796;BME280;1913;50.660;7.834;2022-07-22T08:59:15;61283.88;;;-145.51;100.00
3796;BME280;1913;50.660;7.834;2022-07-22T09:04:30;61283.88;;;-145.51;100.00
3796;BME280;1913;50.660;7.834;2022-07-22T09:06:57;61283.88;;;-145.51;100.00
3796;BME280;1913;50.660;7.834;2022-07-22T09:09:31;61283.88;;;-145.51;100.00
3796;BME280;1913;50.660;7.834;2022-07-22T09:12:07;61283.88;;;-145.51;100.00
3796;BME280;1913;50.660;7.834;2022-07-22T09:14:44;61283.88;;;-145.51;100.00
3796;BME280;1913;50.660;7.834;2022-07-22T09:17:34;61283.88;;;-145.51;100.00
3796;BME280;1913;50.660;7.834;2022-07-22T09:20:04;61283.88;;;-145.51;100.00
3796;BME280;1913;50.660;7.834;2022-07-22T09:22:45;61283.88;;;-145.51;100.00
3796;BME280;1913;50.660;7.834;2022-07-22T09:30:38;61283.88;;;-145.51;100.00
3796;BME280;1913;50.660;7.834;2022-07-22T09:33:05;61283.88;;;-145.51;100.00
3796;BME280;1913;50.660;7.834;2022-07-22T09:35:30;61283.88;;;-145.51;100.00
3796;BME280;1913;50.660;7.834;2022-07-22T09:37:58;61283.88;;;-145.51;100.00
3796;BME280;1913;50.660;7.834;2022-07-22T09:40:26;61283.88;;;-145.51;100.00
3796;BME280;1913;50.660;7.834;2022-07-22T09:43:00;61283.88;;;-145.51;100.00
3796;BME280;1913;50.660;7.834;2022-07-22T09:45:29;61283.88;;;-145.51;100.00
3796;BME280;1913;50.660;7.834;2022-07-22T09:47:56;61283.88;;;-145.51;100.00
3796;BME280;1913;50.660;7.834;2022-07-22T09:50:30;61283.88;;;-145.51;100.00
3796;BME280;1913;50.660;7.834;2022-07-22T09:52:57;61283.88;;;-145.51;100.00
3796;BME280;1913;50.660;7.834;2022-07-22T09:55:25;61283.88;;;-145.51;100.00
3796;BME280;1913;50.660;7.834;2022-07-22T09:57:52;61283.88;;;-145.51;100.00
3796;BME280;1913;50.660;7.834;2022-07-22T10:00:20;61283.88;;;-145.51;100.00
3796;BME280;1913;50.660;7.834;2022-07-22T10:05:12;61283.88;;;-145.51;100.00
3796;BME280;1913;50.660;7.834;2022-07-22T10:07:40;61283.88;;;-145.51;100.00
3796;BME280;1913;50.660;7.834;2022-07-22T10:10:07;61283.88;;;-145.51;100.00
3796;BME280;1913;50.660;7.834;2022-07-22T10:12:36;61283.88;;;-145.51;100.00
3796;BME280;1913;50.660;7.834;2022-07-22T10:15:02;61283.88;;;-145.51;100.00
3796;BME280;1913;50.660;7.834;2022-07-22T10:17:27;61283.88;;;-145.51;100.00
3796;BME280;1913;50.660;7.834;2022-07-22T10:19:53;61283.88;;;-145.51;100.00
3796;BME280;1913;50.660;7.834;2022-07-22T10:25:04;61283.88;;;-145.51;100.00
3796;BME280;1913;50.660;7.834;2022-07-22T10:30:20;61283.88;;;-145.51;100.00
3796;BME280;1913;50.660;7.834;2022-07-22T10:33:01;61283.88;;;-145.51;100.00
3796;BME280;1913;50.660;7.834;2022-07-22T10:35:27;61283.88;;;-145.51;100.00
3796;BME280;1913;50.660;7.834;2022-07-22T10:37:55;61283.88;;;-145.51;100.00
3796;BME280;1913;50.660;7.834;2022-07-22T10:40:24;61283.88;;;-145.51;100.00
3796;BME280;1913;50.660;7.834;2022-07-22T10:45:33;97599.13;;;30.28;43.35
3796;BME280;1913;50.660;7.834;2022-07-22T10:48:01;97599.28;;;30.23;43.39
3796;BME280;1913;50.660;7.834;2022-07-22T10:53:17;97593.34;;;30.47;40.46
3796;BME280;1913;50.660;7.834;2022-07-22T11:01:07;97588.63;;;30.91;41.23
3796;BME280;1913;50.660;7.834;2022-07-22T11:03:36;97595.28;;;31.40;39.28
3796;BME280;1913;50.660;7.834;2022-07-22T11:06:20;97585.66;;;30.75;38.58
3796;BME280;1913;50.660;7.834;2022-07-22T11:08:52;97579.25;;;30.80;40.47
3796;BME280;1913;50.660;7.834;2022-07-22T11:11:18;97579.47;;;30.48;41.39
3796;BME280;1913;50.660;7.834;2022-07-22T11:13:44;97579.41;;;30.66;39.69
3796;BME280;1913;50.660;7.834;2022-07-22T11:16:19;97572.97;;;30.96;40.44
3796;BME280;1913;50.660;7.834;2022-07-22T11:21:14;97577.09;;;29.95;43.25
3796;BME280;1913;50.660;7.834;2022-07-22T11:23:40;97579.81;;;31.03;40.25
3796;BME280;1913;50.660;7.834;2022-07-22T11:26:08;97571.91;;;30.80;39.96
3796;BME280;1913;50.660;7.834;2022-07-22T11:28:43;97568.66;;;31.25;39.00
3796;BME280;1913;50.660;7.834;2022-07-22T11:31:12;97569.41;;;31.64;36.04
3796;BME280;1913;50.660;7.834;2022-07-22T11:33:38;97569.78;;;31.24;36.34
3796;BME280;1913;50.660;7.834;2022-07-22T11:36:05;97577.66;;;31.46;39.08
3796;BME280;1913;50.660;7.834;2022-07-22T11:41:09;97585.63;;;32.02;37.17
3796;BME280;1913;50.660;7.834;2022-07-22T11:43:43;97581.56;;;31.87;37.75
3796;BME280;1913;50.660;7.834;2022-07-22T11:46:09;97567.09;;;31.24;36.55
3796;BME280;1913;50.660;7.834;2022-07-22T11:48:34;97563.41;;;29.82;38.14
3796;BME280;1913;50.660;7.834;2022-07-22T11:51:05;97557.34;;;30.20;39.99
3796;BME280;1913;50.660;7.834;2022-07-22T11:53:30;97550.19;;;30.24;38.89
3796;BME280;1913;50.660;7.834;2022-07-22T11:56:00;97554.91;;;30.53;40.84
3796;BME280;1913;50.660;7.834;2022-07-22T11:58:43;97558.88;;;31.41;39.68
3796;BME280;1913;50.660;7.834;2022-07-22T12:01:11;97561.25;;;31.43;37.60
3796;BME280;1913;50.660;7.834;2022-07-22T12:03:40;97560.75;;;30.82;38.58
3796;BME280;1913;50.660;7.834;2022-07-22T12:06:08;97553.97;;;31.26;37.38
3796;BME280;1913;50.660;7.834;2022-07-22T12:08:43;97551.09;;;31.31;37.36
3796;BME280;1913;50.660;7.834;2022-07-22T12:11:10;97542.50;;;31.50;37.55
3796;BME280;1913;50.660;7.834;2022-07-22T12:13:41;97535.50;;;31.70;36.81
3796;BME280;1913;50.660;7.834;2022-07-22T12:16:22;97533.75;;;32.07;36.94
3796;BME280;1913;50.660;7.834;2022-07-22T12:18:56;97532.03;;;31.82;36.99
3796;BME280;1913;50.660;7.834;2022-07-22T12:21:23;97531.09;;;31.36;36.49
3796;BME280;1913;50.660;7.834;2022-07-22T12:23:58;97528.72;;;31.55;37.63
3796;BME280;1913;50.660;7.834;2022-07-22T12:29:28;97521.66;;;32.50;34.98
3796;BME280;1913;50.660;7.834;2022-07-22T12:32:00;97512.78;;;32.41;35.43
3796;BME280;1913;50.660;7.834;2022-07-22T12:34:42;97515.78;;;32.73;35.06
3796;BME280;1913;50.660;7.834;2022-07-22T12:37:29;97518.50;;;32.73;33.40
3796;BME280;1913;50.660;7.834;2022-07-22T12:40:10;97513.69;;;31.79;34.52
3796;BME280;1913;50.660;7.834;2022-07-22T12:42:42;97508.44;;;31.94;35.33
3796;BME280;1913;50.660;7.834;2022-07-22T12:45:17;97509.78;;;31.67;36.29
3796;BME280;1913;50.660;7.834;2022-07-22T12:50:30;97503.34;;;32.84;34.34
3796;BME280;1913;50.660;7.834;2022-07-22T12:53:00;97513.97;;;32.64;33.30
3796;BME280;1913;50.660;7.834;2022-07-22T12:55:31;97510.69;;;31.51;34.93
3796;BME280;1913;50.660;7.834;2022-07-22T12:57:56;97504.97;;;30.93;38.28
3796;BME280;1913;50.660;7.834;2022-07-22T13:00:27;97503.13;;;30.76;38.77
3796;BME280;1913;50.660;7.834;2022-07-22T13:02:53;97509.84;;;31.08;37.46
3796;BME280;1913;50.660;7.834;2022-07-22T13:05:19;97506.16;;;30.74;38.56
3796;BME280;1913;50.660;7.834;2022-07-22T13:07:45;97506.97;;;31.05;38.47
3796;BME280;1913;50.660;7.834;2022-07-22T13:10:12;97509.44;;;31.48;37.50
3796;BME280;1913;50.660;7.834;2022-07-22T13:12:38;97507.16;;;31.29;37.20
3796;BME280;1913;50.660;7.834;2022-07-22T13:15:04;97509.69;;;31.34;37.55
3796;BME280;1913;50.660;7.834;2022-07-22T13:17:30;97503.69;;;31.91;39.01
3796;BME280;1913;50.660;7.834;2022-07-22T13:19:55;97498.13;;;31.46;38.22
3796;BME280;1913;50.660;7.834;2022-07-22T13:22:20;97492.06;;;31.82;38.14
3796;BME280;1913;50.660;7.834;2022-07-22T13:24:46;97493.66;;;32.04;36.66
3796;BME280;1913;50.660;7.834;2022-07-22T13:27:11;97496.56;;;30.86;38.45
3796;BME280;1913;50.660;7.834;2022-07-22T13:29:37;97480.13;;;30.73;38.56
3796;BME280;1913;50.660;7.834;2022-07-22T13:32:02;97484.56;;;30.87;39.24